sensor_id;sensor_type;location;lat;lon;timestamp;temperature;humidity
51839;DHT22;37886;53.174;6.368;2023-11-21T00:01:57;9.50;99.90
51839;DHT22;37886;53.174;6.368;2023-11-21T00:04:23;9.50;99.90
51839;DHT22;37886;53.174;6.368;2023-11-21T00:06:50;9.50;99.90
51839;DHT22;37886;53.174;6.368;2023-11-21T00:09:16;9.50;99.90
51839;DHT22;37886;53.174;6.368;2023-11-21T00:11:43;9.50;99.90
51839;DHT22;37886;53.174;6.368;2023-11-21T00:14:11;9.50;99.90
51839;DHT22;37886;53.174;6.368;2023-11-21T00:16:37;9.40;99.90
51839;DHT22;37886;53.174;6.368;2023-11-21T00:19:02;9.40;99.90
51839;DHT22;37886;53.174;6.368;2023-11-21T00:21:28;9.40;99.90
51839;DHT22;37886;53.174;6.368;2023-11-21T00:23:54;9.40;99.90
51839;DHT22;37886;53.174;6.368;2023-11-21T00:26:19;9.40;99.90
51839;DHT22;37886;53.174;6.368;2023-11-21T00:28:45;9.40;99.90
51839;DHT22;37886;53.174;6.368;2023-11-21T00:31:11;9.40;99.90
51839;DHT22;37886;53.174;6.368;2023-11-21T00:33:37;9.40;99.90
51839;DHT22;37886;53.174;6.368;2023-11-21T00:36:03;9.40;99.90
51839;DHT22;37886;53.174;6.368;2023-11-21T00:38:28;9.40;99.90
51839;DHT22;37886;53.174;6.368;2023-11-21T00:40:54;9.40;99.90
51839;DHT22;37886;53.174;6.368;2023-11-21T00:43:24;9.40;99.90
51839;DHT22;37886;53.174;6.368;2023-11-21T00:45:50;9.40;99.90
51839;DHT22;37886;53.174;6.368;2023-11-21T00:48:16;9.40;99.90
51839;DHT22;37886;53.174;6.368;2023-11-21T00:50:44;9.40;99.90
51839;DHT22;37886;53.174;6.368;2023-11-21T00:53:09;9.40;99.90
51839;DHT22;37886;53.174;6.368;2023-11-21T00:55:36;9.40;99.90
51839;DHT22;37886;53.174;6.368;2023-11-21T00:58:02;9.40;99.90
51839;DHT22;37886;53.174;6.368;2023-11-21T01:00:29;9.40;99.90
51839;DHT22;37886;53.174;6.368;2023-11-21T01:02:55;9.40;99.90
51839;DHT22;37886;53.174;6.368;2023-11-21T01:05:21;9.50;99.90
51839;DHT22;37886;53.174;6.368;2023-11-21T01:07:47;9.40;99.90
51839;DHT22;37886;53.174;6.368;2023-11-21T01:10:13;9.40;99.90
51839;DHT22;37886;53.174;6.368;2023-11-21T01:12:38;9.40;99.90
51839;DHT22;37886;53.174;6.368;2023-11-21T01:15:05;9.40;99.90
51839;DHT22;37886;53.174;6.368;2023-11-21T01:17:34;9.50;99.90
51839;DHT22;37886;53.174;6.368;2023-11-21T01:20:01;9.50;99.90
51839;DHT22;37886;53.174;6.368;2023-11-21T01:22:28;9.50;99.90
51839;DHT22;37886;53.174;6.368;2023-11-21T01:24:54;9.50;99.90
51839;DHT22;37886;53.174;6.368;2023-11-21T01:27:20;9.50;99.90
51839;DHT22;37886;53.174;6.368;2023-11-21T01:29:46;9.50;99.90
51839;DHT22;37886;53.174;6.368;2023-11-21T01:32:11;9.50;99.90
51839;DHT22;37886;53.174;6.368;2023-11-21T01:34:38;9.50;99.90
51839;DHT22;37886;53.174;6.368;2023-11-21T01:37:03;9.50;99.90
51839;DHT22;37886;53.174;6.368;2023-11-21T01:39:31;9.50;99.90
51839;DHT22;37886;53.174;6.368;2023-11-21T01:41:57;9.50;99.90
51839;DHT22;37886;53.174;6.368;2023-11-21T01:44:26;9.50;99.90
51839;DHT22;37886;53.174;6.368;2023-11-21T01:46:52;9.50;99.90
51839;DHT22;37886;53.174;6.368;2023-11-21T01:49:19;9.50;99.90
51839;DHT22;37886;53.174;6.368;2023-11-21T01:51:48;9.50;99.90
51839;DHT22;37886;53.174;6.368;2023-11-21T01:54:17;9.50;99.90
51839;DHT22;37886;53.174;6.368;2023-11-21T01:56:47;9.50;99.90
51839;DHT22;37886;53.174;6.368;2023-11-21T01:59:17;9.50;99.90
51839;DHT22;37886;53.174;6.368;2023-11-21T02:01:43;9.50;99.90
51839;DHT22;37886;53.174;6.368;2023-11-21T02:04:09;9.60;99.90
51839;DHT22;37886;53.174;6.368;2023-11-21T02:06:35;9.60;99.90
51839;DHT22;37886;53.174;6.368;2023-11-21T02:09:01;9.60;99.90
51839;DHT22;37886;53.174;6.368;2023-11-21T02:11:27;9.60;99.90
51839;DHT22;37886;53.174;6.368;2023-11-21T02:13:56;9.60;99.90
51839;DHT22;37886;53.174;6.368;2023-11-21T02:16:24;9.60;99.90
51839;DHT22;37886;53.174;6.368;2023-11-21T02:18:51;9.60;99.90
51839;DHT22;37886;53.174;6.368;2023-11-21T02:21:17;9.70;99.90
51839;DHT22;37886;53.174;6.368;2023-11-21T02:23:45;9.70;99.90
51839;DHT22;37886;53.174;6.368;2023-11-21T02:26:12;9.70;99.90
51839;DHT22;37886;53.174;6.368;2023-11-21T02:28:40;9.70;99.90
51839;DHT22;37886;53.174;6.368;2023-11-21T02:31:05;9.70;99.90
51839;DHT22;37886;53.174;6.368;2023-11-21T02:33:33;9.70;99.90
51839;DHT22;37886;53.174;6.368;2023-11-21T02:36:00;9.70;99.90
51839;DHT22;37886;53.174;6.368;2023-11-21T02:38:26;9.70;99.90
51839;DHT22;37886;53.174;6.368;2023-11-21T02:40:51;9.70;99.90
51839;DHT22;37886;53.174;6.368;2023-11-21T02:43:17;9.80;99.90
51839;DHT22;37886;53.174;6.368;2023-11-21T02:45:43;9.80;99.90
51839;DHT22;37886;53.174;6.368;2023-11-21T02:48:09;9.80;99.90
51839;DHT22;37886;53.174;6.368;2023-11-21T02:50:34;9.80;99.90
51839;DHT22;37886;53.174;6.368;2023-11-21T02:53:01;9.80;99.90
51839;DHT22;37886;53.174;6.368;2023-11-21T02:55:27;9.80;99.90
51839;DHT22;37886;53.174;6.368;2023-11-21T02:57:54;9.80;99.90
51839;DHT22;37886;53.174;6.368;2023-11-21T03:00:22;9.80;99.90
51839;DHT22;37886;53.174;6.368;2023-11-21T03:02:49;9.80;99.90
51839;DHT22;37886;53.174;6.368;2023-11-21T03:05:15;9.70;99.90
51839;DHT22;37886;53.174;6.368;2023-11-21T03:07:41;9.70;99.90
51839;DHT22;37886;53.174;6.368;2023-11-21T03:10:08;9.70;99.90
51839;DHT22;37886;53.174;6.368;2023-11-21T03:12:40;9.70;99.90
51839;DHT22;37886;53.174;6.368;2023-11-21T03:15:06;9.70;99.90
51839;DHT22;37886;53.174;6.368;2023-11-21T03:17:33;9.70;99.90
51839;DHT22;37886;53.174;6.368;2023-11-21T03:20:01;9.70;99.90
51839;DHT22;37886;53.174;6.368;2023-11-21T03:22:28;9.70;99.90
51839;DHT22;37886;53.174;6.368;2023-11-21T03:24:54;9.70;99.90
51839;DHT22;37886;53.174;6.368;2023-11-21T03:27:19;9.70;99.90
51839;DHT22;37886;53.174;6.368;2023-11-21T03:29:46;9.70;99.90
51839;DHT22;37886;53.174;6.368;2023-11-21T03:32:12;9.70;99.90
51839;DHT22;37886;53.174;6.368;2023-11-21T03:34:54;9.70;99.90
51839;DHT22;37886;53.174;6.368;2023-11-21T03:37:21;9.60;99.90
51839;DHT22;37886;53.174;6.368;2023-11-21T03:39:47;9.60;99.90
51839;DHT22;37886;53.174;6.368;2023-11-21T03:42:12;9.60;99.90
51839;DHT22;37886;53.174;6.368;2023-11-21T03:44:38;9.50;99.90
51839;DHT22;37886;53.174;6.368;2023-11-21T03:47:04;9.50;99.90
51839;DHT22;37886;53.174;6.368;2023-11-21T03:49:30;9.50;99.90
51839;DHT22;37886;53.174;6.368;2023-11-21T03:51:56;9.50;99.90
51839;DHT22;37886;53.174;6.368;2023-11-21T03:54:22;9.50;99.90
51839;DHT22;37886;53.174;6.368;2023-11-21T03:56:48;9.50;99.90
51839;DHT22;37886;53.174;6.368;2023-11-21T03:59:13;9.50;99.90
51839;DHT22;37886;53.174;6.368;2023-11-21T04:01:39;9.50;99.90
51839;DHT22;37886;53.174;6.368;2023-11-21T04:04:05;9.50;99.90
51839;DHT22;37886;53.174;6.368;2023-11-21T04:06:30;9.50;99.90
51839;DHT22;37886;53.174;6.368;2023-11-21T04:08:58;9.50;99.90
51839;DHT22;37886;53.174;6.368;2023-11-21T04:11:24;9.50;99.90
51839;DHT22;37886;53.174;6.368;2023-11-21T04:13:50;9.50;99.90
51839;DHT22;37886;53.174;6.368;2023-11-21T04:16:16;9.50;99.90
51839;DHT22;37886;53.174;6.368;2023-11-21T04:18:41;9.50;99.90
51839;DHT22;37886;53.174;6.368;2023-11-21T04:21:08;9.50;99.90
51839;DHT22;37886;53.174;6.368;2023-11-21T04:23:34;9.50;99.90
51839;DHT22;37886;53.174;6.368;2023-11-21T04:26:00;9.50;99.90
51839;DHT22;37886;53.174;6.368;2023-11-21T04:28:27;9.50;99.90
51839;DHT22;37886;53.174;6.368;2023-11-21T04:30:53;9.60;99.90
51839;DHT22;37886;53.174;6.368;2023-11-21T04:33:19;9.50;99.90
51839;DHT22;37886;53.174;6.368;2023-11-21T04:35:45;9.50;99.90
51839;DHT22;37886;53.174;6.368;2023-11-21T04:38:11;9.50;99.90
51839;DHT22;37886;53.174;6.368;2023-11-21T04:40:37;9.50;99.90
51839;DHT22;37886;53.174;6.368;2023-11-21T04:43:03;9.50;99.90
51839;DHT22;37886;53.174;6.368;2023-11-21T04:45:29;9.50;99.90
51839;DHT22;37886;53.174;6.368;2023-11-21T04:47:55;9.50;99.90
51839;DHT22;37886;53.174;6.368;2023-11-21T04:50:21;9.50;99.90
51839;DHT22;37886;53.174;6.368;2023-11-21T04:52:47;9.60;99.90
51839;DHT22;37886;53.174;6.368;2023-11-21T04:55:13;9.60;99.90
51839;DHT22;37886;53.174;6.368;2023-11-21T04:57:40;9.60;99.90
51839;DHT22;37886;53.174;6.368;2023-11-21T05:00:09;9.60;99.90
51839;DHT22;37886;53.174;6.368;2023-11-21T05:02:34;9.60;99.90
51839;DHT22;37886;53.174;6.368;2023-11-21T05:05:01;9.60;99.90
51839;DHT22;37886;53.174;6.368;2023-11-21T05:07:27;9.60;99.90
51839;DHT22;37886;53.174;6.368;2023-11-21T05:09:55;9.60;99.90
51839;DHT22;37886;53.174;6.368;2023-11-21T05:12:24;9.60;99.90
51839;DHT22;37886;53.174;6.368;2023-11-21T05:14:51;9.60;99.90
51839;DHT22;37886;53.174;6.368;2023-11-21T05:17:17;9.50;99.90
51839;DHT22;37886;53.174;6.368;2023-11-21T05:19:42;9.50;99.90
51839;DHT22;37886;53.174;6.368;2023-11-21T05:22:11;9.50;99.90
51839;DHT22;37886;53.174;6.368;2023-11-21T05:24:38;9.50;99.90
51839;DHT22;37886;53.174;6.368;2023-11-21T05:27:05;9.50;99.90
51839;DHT22;37886;53.174;6.368;2023-11-21T05:29:30;9.50;99.90
51839;DHT22;37886;53.174;6.368;2023-11-21T05:31:56;9.40;99.90
51839;DHT22;37886;53.174;6.368;2023-11-21T05:34:22;9.50;99.90
51839;DHT22;37886;53.174;6.368;2023-11-21T05:36:50;9.50;99.90
51839;DHT22;37886;53.174;6.368;2023-11-21T05:39:16;9.40;99.90
51839;DHT22;37886;53.174;6.368;2023-11-21T05:41:43;9.40;99.90
51839;DHT22;37886;53.174;6.368;2023-11-21T05:44:08;9.40;99.90
51839;DHT22;37886;53.174;6.368;2023-11-21T05:46:34;9.40;99.90
51839;DHT22;37886;53.174;6.368;2023-11-21T05:49:00;9.40;99.90
51839;DHT22;37886;53.174;6.368;2023-11-21T05:51:26;9.50;99.90
51839;DHT22;37886;53.174;6.368;2023-11-21T05:53:51;9.40;99.90
51839;DHT22;37886;53.174;6.368;2023-11-21T05:56:17;9.40;99.90
51839;DHT22;37886;53.174;6.368;2023-11-21T05:58:43;9.40;99.90
51839;DHT22;37886;53.174;6.368;2023-11-21T06:01:09;9.40;99.90
51839;DHT22;37886;53.174;6.368;2023-11-21T06:03:38;9.40;99.90
51839;DHT22;37886;53.174;6.368;2023-11-21T06:06:04;9.40;99.90
51839;DHT22;37886;53.174;6.368;2023-11-21T06:08:30;9.40;99.90
51839;DHT22;37886;53.174;6.368;2023-11-21T06:10:56;9.40;99.90
51839;DHT22;37886;53.174;6.368;2023-11-21T06:13:22;9.40;99.90
51839;DHT22;37886;53.174;6.368;2023-11-21T06:15:50;9.40;99.90
51839;DHT22;37886;53.174;6.368;2023-11-21T06:18:16;9.40;99.90
51839;DHT22;37886;53.174;6.368;2023-11-21T06:20:45;9.30;99.90
51839;DHT22;37886;53.174;6.368;2023-11-21T06:23:11;9.30;99.90
51839;DHT22;37886;53.174;6.368;2023-11-21T06:25:37;9.40;99.90
51839;DHT22;37886;53.174;6.368;2023-11-21T06:28:03;9.40;99.90
51839;DHT22;37886;53.174;6.368;2023-11-21T06:30:29;9.40;99.90
51839;DHT22;37886;53.174;6.368;2023-11-21T06:32:55;9.40;99.90
51839;DHT22;37886;53.174;6.368;2023-11-21T06:35:21;9.40;99.90
51839;DHT22;37886;53.174;6.368;2023-11-21T06:37:47;9.40;99.90
51839;DHT22;37886;53.174;6.368;2023-11-21T06:40:14;9.40;99.90
51839;DHT22;37886;53.174;6.368;2023-11-21T06:42:40;9.40;99.90
51839;DHT22;37886;53.174;6.368;2023-11-21T06:45:07;9.30;99.90
51839;DHT22;37886;53.174;6.368;2023-11-21T06:47:33;9.40;99.90
51839;DHT22;37886;53.174;6.368;2023-11-21T06:49:59;9.30;99.90
51839;DHT22;37886;53.174;6.368;2023-11-21T06:52:26;9.30;99.90
51839;DHT22;37886;53.174;6.368;2023-11-21T06:54:51;9.30;99.90
51839;DHT22;37886;53.174;6.368;2023-11-21T06:57:17;9.20;99.90
51839;DHT22;37886;53.174;6.368;2023-11-21T06:59:44;9.20;99.90
51839;DHT22;37886;53.174;6.368;2023-11-21T07:02:09;9.30;99.90
51839;DHT22;37886;53.174;6.368;2023-11-21T07:04:36;9.20;99.90
51839;DHT22;37886;53.174;6.368;2023-11-21T07:07:05;9.20;99.90
51839;DHT22;37886;53.174;6.368;2023-11-21T07:09:32;9.20;99.90
51839;DHT22;37886;53.174;6.368;2023-11-21T07:11:58;9.20;99.90
51839;DHT22;37886;53.174;6.368;2023-11-21T07:14:23;9.10;99.90
51839;DHT22;37886;53.174;6.368;2023-11-21T07:16:49;9.00;99.90
51839;DHT22;37886;53.174;6.368;2023-11-21T07:19:15;9.00;99.90
51839;DHT22;37886;53.174;6.368;2023-11-21T07:21:41;8.90;99.90
51839;DHT22;37886;53.174;6.368;2023-11-21T07:24:08;8.90;99.90
51839;DHT22;37886;53.174;6.368;2023-11-21T07:26:34;8.90;99.90
51839;DHT22;37886;53.174;6.368;2023-11-21T07:29:02;8.90;99.90
51839;DHT22;37886;53.174;6.368;2023-11-21T07:31:28;8.90;99.90
51839;DHT22;37886;53.174;6.368;2023-11-21T07:33:55;8.90;99.90
51839;DHT22;37886;53.174;6.368;2023-11-21T07:36:23;9.00;99.90
51839;DHT22;37886;53.174;6.368;2023-11-21T07:38:49;8.90;99.90
51839;DHT22;37886;53.174;6.368;2023-11-21T07:41:16;9.00;99.90
51839;DHT22;37886;53.174;6.368;2023-11-21T07:43:43;8.90;99.90
51839;DHT22;37886;53.174;6.368;2023-11-21T07:46:10;8.90;99.90
51839;DHT22;37886;53.174;6.368;2023-11-21T07:48:38;9.00;99.90
51839;DHT22;37886;53.174;6.368;2023-11-21T07:51:05;8.90;99.90
51839;DHT22;37886;53.174;6.368;2023-11-21T07:53:32;8.90;99.90
51839;DHT22;37886;53.174;6.368;2023-11-21T07:56:02;8.90;99.90
51839;DHT22;37886;53.174;6.368;2023-11-21T07:58:28;8.90;99.90
51839;DHT22;37886;53.174;6.368;2023-11-21T08:00:54;8.90;99.90
51839;DHT22;37886;53.174;6.368;2023-11-21T08:03:20;8.80;99.90
51839;DHT22;37886;53.174;6.368;2023-11-21T08:05:46;8.80;99.90
51839;DHT22;37886;53.174;6.368;2023-11-21T08:08:12;8.80;99.90
51839;DHT22;37886;53.174;6.368;2023-11-21T08:10:38;8.70;99.90
51839;DHT22;37886;53.174;6.368;2023-11-21T08:13:05;8.70;99.90
51839;DHT22;37886;53.174;6.368;2023-11-21T08:15:31;8.70;99.90
51839;DHT22;37886;53.174;6.368;2023-11-21T08:17:58;8.70;99.90
51839;DHT22;37886;53.174;6.368;2023-11-21T08:20:26;8.70;99.90
51839;DHT22;37886;53.174;6.368;2023-11-21T08:22:53;8.70;99.90
51839;DHT22;37886;53.174;6.368;2023-11-21T08:25:20;8.70;99.90
51839;DHT22;37886;53.174;6.368;2023-11-21T08:27:46;8.70;99.90
51839;DHT22;37886;53.174;6.368;2023-11-21T08:30:12;8.70;99.90
51839;DHT22;37886;53.174;6.368;2023-11-21T08:32:40;8.70;99.90
51839;DHT22;37886;53.174;6.368;2023-11-21T08:35:07;8.70;99.90
51839;DHT22;37886;53.174;6.368;2023-11-21T08:37:33;8.70;99.90
51839;DHT22;37886;53.174;6.368;2023-11-21T08:40:03;8.70;99.90
51839;DHT22;37886;53.174;6.368;2023-11-21T08:42:31;8.70;99.90
51839;DHT22;37886;53.174;6.368;2023-11-21T08:44:56;8.70;99.90
51839;DHT22;37886;53.174;6.368;2023-11-21T08:47:25;8.70;99.90
51839;DHT22;37886;53.174;6.368;2023-11-21T08:49:52;8.80;99.90
51839;DHT22;37886;53.174;6.368;2023-11-21T08:52:20;8.80;99.90
51839;DHT22;37886;53.174;6.368;2023-11-21T08:54:52;8.80;99.90
51839;DHT22;37886;53.174;6.368;2023-11-21T08:57:25;8.90;99.90
51839;DHT22;37886;53.174;6.368;2023-11-21T08:59:51;8.90;99.90
51839;DHT22;37886;53.174;6.368;2023-11-21T09:02:26;8.80;99.90
51839;DHT22;37886;53.174;6.368;2023-11-21T09:04:52;8.80;99.90
51839;DHT22;37886;53.174;6.368;2023-11-21T09:07:19;8.80;99.90
51839;DHT22;37886;53.174;6.368;2023-11-21T09:09:46;8.80;99.90
51839;DHT22;37886;53.174;6.368;2023-11-21T09:12:13;8.80;99.90
51839;DHT22;37886;53.174;6.368;2023-11-21T09:14:38;8.80;99.90
51839;DHT22;37886;53.174;6.368;2023-11-21T09:17:05;8.80;99.90
51839;DHT22;37886;53.174;6.368;2023-11-21T09:19:40;8.80;99.90
51839;DHT22;37886;53.174;6.368;2023-11-21T09:22:06;8.80;99.90
51839;DHT22;37886;53.174;6.368;2023-11-21T09:24:33;8.90;99.90
51839;DHT22;37886;53.174;6.368;2023-11-21T09:26:59;8.90;99.90
51839;DHT22;37886;53.174;6.368;2023-11-21T09:29:28;8.80;99.90
51839;DHT22;37886;53.174;6.368;2023-11-21T09:31:55;8.90;99.90
51839;DHT22;37886;53.174;6.368;2023-11-21T09:34:21;8.90;99.90
51839;DHT22;37886;53.174;6.368;2023-11-21T09:36:47;9.00;99.90
51839;DHT22;37886;53.174;6.368;2023-11-21T09:39:14;9.10;99.90
51839;DHT22;37886;53.174;6.368;2023-11-21T09:41:43;9.20;99.90
51839;DHT22;37886;53.174;6.368;2023-11-21T09:44:13;9.10;99.90
51839;DHT22;37886;53.174;6.368;2023-11-21T09:46:42;9.20;99.90
51839;DHT22;37886;53.174;6.368;2023-11-21T09:49:11;9.10;99.90
51839;DHT22;37886;53.174;6.368;2023-11-21T09:51:45;9.00;99.90
51839;DHT22;37886;53.174;6.368;2023-11-21T09:54:13;8.80;99.90
51839;DHT22;37886;53.174;6.368;2023-11-21T09:56:42;8.70;99.90
51839;DHT22;37886;53.174;6.368;2023-11-21T09:59:13;8.70;99.90
51839;DHT22;37886;53.174;6.368;2023-11-21T10:01:42;8.60;99.90
51839;DHT22;37886;53.174;6.368;2023-11-21T10:04:11;8.60;99.90
51839;DHT22;37886;53.174;6.368;2023-11-21T10:06:40;8.60;99.90
51839;DHT22;37886;53.174;6.368;2023-11-21T10:09:12;8.50;99.90
51839;DHT22;37886;53.174;6.368;2023-11-21T10:11:43;8.50;99.90
51839;DHT22;37886;53.174;6.368;2023-11-21T10:14:10;8.50;99.90
51839;DHT22;37886;53.174;6.368;2023-11-21T10:16:39;8.40;99.90
51839;DHT22;37886;53.174;6.368;2023-11-21T10:19:09;8.40;99.90
51839;DHT22;37886;53.174;6.368;2023-11-21T10:21:35;8.50;99.90
51839;DHT22;37886;53.174;6.368;2023-11-21T10:24:01;8.50;99.90
51839;DHT22;37886;53.174;6.368;2023-11-21T10:26:28;8.50;99.90
51839;DHT22;37886;53.174;6.368;2023-11-21T10:29:01;8.50;99.90
51839;DHT22;37886;53.174;6.368;2023-11-21T10:31:30;8.60;99.90
51839;DHT22;37886;53.174;6.368;2023-11-21T10:34:18;8.60;99.90
51839;DHT22;37886;53.174;6.368;2023-11-21T10:36:44;8.60;99.90
51839;DHT22;37886;53.174;6.368;2023-11-21T10:39:16;8.70;99.90
51839;DHT22;37886;53.174;6.368;2023-11-21T10:41:46;8.80;99.90
51839;DHT22;37886;53.174;6.368;2023-11-21T10:44:18;8.90;99.90
51839;DHT22;37886;53.174;6.368;2023-11-21T10:46:54;9.00;99.90
51839;DHT22;37886;53.174;6.368;2023-11-21T10:49:26;9.00;99.90
51839;DHT22;37886;53.174;6.368;2023-11-21T10:51:53;8.90;99.90
51839;DHT22;37886;53.174;6.368;2023-11-21T10:54:20;8.80;99.90
51839;DHT22;37886;53.174;6.368;2023-11-21T10:56:50;8.80;99.90
51839;DHT22;37886;53.174;6.368;2023-11-21T10:59:17;8.80;99.90
51839;DHT22;37886;53.174;6.368;2023-11-21T11:01:45;8.70;99.90
51839;DHT22;37886;53.174;6.368;2023-11-21T11:04:15;8.60;99.90
51839;DHT22;37886;53.174;6.368;2023-11-21T11:06:43;8.50;99.90
51839;DHT22;37886;53.174;6.368;2023-11-21T11:09:13;8.50;99.90
51839;DHT22;37886;53.174;6.368;2023-11-21T11:11:40;8.60;99.90
51839;DHT22;37886;53.174;6.368;2023-11-21T11:14:10;8.60;99.90
51839;DHT22;37886;53.174;6.368;2023-11-21T11:16:38;8.60;99.90
51839;DHT22;37886;53.174;6.368;2023-11-21T11:19:07;8.60;99.90
51839;DHT22;37886;53.174;6.368;2023-11-21T11:21:37;8.50;99.90
51839;DHT22;37886;53.174;6.368;2023-11-21T11:30:10;8.40;99.90
51839;DHT22;37886;53.174;6.368;2023-11-21T11:32:58;8.40;99.90
51839;DHT22;37886;53.174;6.368;2023-11-21T11:35:51;8.30;99.90
51839;DHT22;37886;53.174;6.368;2023-11-21T11:38:21;8.50;99.90
51839;DHT22;37886;53.174;6.368;2023-11-21T11:40:52;8.60;99.90
51839;DHT22;37886;53.174;6.368;2023-11-21T11:43:25;8.60;99.90
51839;DHT22;37886;53.174;6.368;2023-11-21T11:45:51;8.50;99.90
51839;DHT22;37886;53.174;6.368;2023-11-21T11:48:22;8.50;99.90
51839;DHT22;37886;53.174;6.368;2023-11-21T11:51:05;8.60;99.90
51839;DHT22;37886;53.174;6.368;2023-11-21T11:53:51;8.80;99.90
51839;DHT22;37886;53.174;6.368;2023-11-21T11:58:53;9.10;99.90
51839;DHT22;37886;53.174;6.368;2023-11-21T12:01:20;9.30;99.90
51839;DHT22;37886;53.174;6.368;2023-11-21T12:06:42;9.20;99.90
51839;DHT22;37886;53.174;6.368;2023-11-21T12:09:20;9.10;99.90
51839;DHT22;37886;53.174;6.368;2023-11-21T12:11:50;9.00;99.90
51839;DHT22;37886;53.174;6.368;2023-11-21T12:14:17;8.90;99.90
51839;DHT22;37886;53.174;6.368;2023-11-21T12:16:43;9.00;99.90
51839;DHT22;37886;53.174;6.368;2023-11-21T12:19:12;9.40;99.90
51839;DHT22;37886;53.174;6.368;2023-11-21T12:21:39;9.60;99.90
51839;DHT22;37886;53.174;6.368;2023-11-21T12:24:08;9.80;99.90
51839;DHT22;37886;53.174;6.368;2023-11-21T12:26:40;9.70;99.90
51839;DHT22;37886;53.174;6.368;2023-11-21T12:29:05;9.70;99.90
51839;DHT22;37886;53.174;6.368;2023-11-21T12:31:33;9.60;99.90
51839;DHT22;37886;53.174;6.368;2023-11-21T12:34:00;9.40;99.90
51839;DHT22;37886;53.174;6.368;2023-11-21T12:36:26;9.20;99.90
51839;DHT22;37886;53.174;6.368;2023-11-21T12:38:52;9.20;99.90
51839;DHT22;37886;53.174;6.368;2023-11-21T12:41:18;9.50;99.90
51839;DHT22;37886;53.174;6.368;2023-11-21T12:43:43;9.70;99.90
51839;DHT22;37886;53.174;6.368;2023-11-21T12:46:10;9.90;99.90
51839;DHT22;37886;53.174;6.368;2023-11-21T12:48:41;9.70;99.90
51839;DHT22;37886;53.174;6.368;2023-11-21T12:51:11;9.70;99.90
51839;DHT22;37886;53.174;6.368;2023-11-21T12:53:41;9.80;99.90
51839;DHT22;37886;53.174;6.368;2023-11-21T12:56:11;9.80;99.90
51839;DHT22;37886;53.174;6.368;2023-11-21T12:58:44;10.00;99.90
51839;DHT22;37886;53.174;6.368;2023-11-21T13:01:13;10.10;99.90
51839;DHT22;37886;53.174;6.368;2023-11-21T13:03:43;10.00;99.90
51839;DHT22;37886;53.174;6.368;2023-11-21T13:06:11;10.20;99.90
51839;DHT22;37886;53.174;6.368;2023-11-21T13:08:38;10.50;99.90
51839;DHT22;37886;53.174;6.368;2023-11-21T13:11:05;10.50;99.90
51839;DHT22;37886;53.174;6.368;2023-11-21T13:13:31;10.10;99.90
51839;DHT22;37886;53.174;6.368;2023-11-21T13:16:00;9.80;99.90
51839;DHT22;37886;53.174;6.368;2023-11-21T13:18:28;9.50;99.90
51839;DHT22;37886;53.174;6.368;2023-11-21T13:21:12;9.30;99.90
51839;DHT22;37886;53.174;6.368;2023-11-21T13:23:39;9.10;99.90
51839;DHT22;37886;53.174;6.368;2023-11-21T13:26:07;9.10;99.90
51839;DHT22;37886;53.174;6.368;2023-11-21T13:28:35;9.00;99.90
51839;DHT22;37886;53.174;6.368;2023-11-21T13:31:02;8.90;99.90
51839;DHT22;37886;53.174;6.368;2023-11-21T13:33:35;8.90;99.90
51839;DHT22;37886;53.174;6.368;2023-11-21T13:36:06;9.00;99.90
51839;DHT22;37886;53.174;6.368;2023-11-21T13:38:35;9.00;99.90
51839;DHT22;37886;53.174;6.368;2023-11-21T13:41:03;9.00;99.90
51839;DHT22;37886;53.174;6.368;2023-11-21T13:43:33;8.90;99.90
51839;DHT22;37886;53.174;6.368;2023-11-21T13:45:59;8.90;99.90
51839;DHT22;37886;53.174;6.368;2023-11-21T13:48:36;8.90;99.90
51839;DHT22;37886;53.174;6.368;2023-11-21T13:51:08;8.80;99.90
51839;DHT22;37886;53.174;6.368;2023-11-21T13:53:38;8.70;99.90
51839;DHT22;37886;53.174;6.368;2023-11-21T13:56:06;8.80;99.90
51839;DHT22;37886;53.174;6.368;2023-11-21T13:58:31;8.90;99.90
51839;DHT22;37886;53.174;6.368;2023-11-21T14:01:20;8.90;99.90
51839;DHT22;37886;53.174;6.368;2023-11-21T14:03:56;8.80;99.90
51839;DHT22;37886;53.174;6.368;2023-11-21T14:06:28;8.80;99.90
51839;DHT22;37886;53.174;6.368;2023-11-21T14:09:00;8.70;99.90
51839;DHT22;37886;53.174;6.368;2023-11-21T14:11:30;8.70;99.90
51839;DHT22;37886;53.174;6.368;2023-11-21T14:13:56;8.50;99.90
51839;DHT22;37886;53.174;6.368;2023-11-21T14:16:25;8.50;99.90
51839;DHT22;37886;53.174;6.368;2023-11-21T14:18:50;8.40;99.90
51839;DHT22;37886;53.174;6.368;2023-11-21T14:21:26;8.40;99.90
51839;DHT22;37886;53.174;6.368;2023-11-21T14:23:53;8.40;99.90
51839;DHT22;37886;53.174;6.368;2023-11-21T14:26:21;8.40;99.90
51839;DHT22;37886;53.174;6.368;2023-11-21T14:28:46;8.40;99.90
51839;DHT22;37886;53.174;6.368;2023-11-21T14:31:14;8.40;99.90
51839;DHT22;37886;53.174;6.368;2023-11-21T14:33:43;8.40;99.90
51839;DHT22;37886;53.174;6.368;2023-11-21T14:36:10;8.30;99.90
51839;DHT22;37886;53.174;6.368;2023-11-21T14:38:36;8.30;99.90
51839;DHT22;37886;53.174;6.368;2023-11-21T14:41:06;8.30;99.90
51839;DHT22;37886;53.174;6.368;2023-11-21T14:43:34;8.20;99.90
51839;DHT22;37886;53.174;6.368;2023-11-21T14:46:02;8.20;99.90
51839;DHT22;37886;53.174;6.368;2023-11-21T14:48:29;8.20;99.90
51839;DHT22;37886;53.174;6.368;2023-11-21T14:51:15;8.20;99.90
51839;DHT22;37886;53.174;6.368;2023-11-21T14:53:56;8.20;99.90
51839;DHT22;37886;53.174;6.368;2023-11-21T14:56:26;8.10;99.90
51839;DHT22;37886;53.174;6.368;2023-11-21T14:58:57;8.10;99.90
51839;DHT22;37886;53.174;6.368;2023-11-21T15:01:26;8.20;99.90
51839;DHT22;37886;53.174;6.368;2023-11-21T15:04:20;8.10;99.90
51839;DHT22;37886;53.174;6.368;2023-11-21T15:06:59;8.10;99.90
51839;DHT22;37886;53.174;6.368;2023-11-21T15:09:25;8.10;99.90
51839;DHT22;37886;53.174;6.368;2023-11-21T15:11:58;8.00;99.90
51839;DHT22;37886;53.174;6.368;2023-11-21T15:14:32;8.00;99.90
51839;DHT22;37886;53.174;6.368;2023-11-21T15:17:00;8.00;99.90
51839;DHT22;37886;53.174;6.368;2023-11-21T15:19:26;7.90;99.90
51839;DHT22;37886;53.174;6.368;2023-11-21T15:21:53;7.90;99.90
51839;DHT22;37886;53.174;6.368;2023-11-21T15:24:19;7.90;99.90
51839;DHT22;37886;53.174;6.368;2023-11-21T15:26:45;7.80;99.90
51839;DHT22;37886;53.174;6.368;2023-11-21T15:29:11;7.80;99.90
51839;DHT22;37886;53.174;6.368;2023-11-21T15:31:38;7.80;99.90
51839;DHT22;37886;53.174;6.368;2023-11-21T15:34:06;7.80;99.90
51839;DHT22;37886;53.174;6.368;2023-11-21T15:36:33;7.70;99.90
51839;DHT22;37886;53.174;6.368;2023-11-21T15:38:59;7.70;99.90
51839;DHT22;37886;53.174;6.368;2023-11-21T15:41:24;7.70;99.90
51839;DHT22;37886;53.174;6.368;2023-11-21T15:43:50;7.70;99.90
51839;DHT22;37886;53.174;6.368;2023-11-21T15:46:16;7.60;99.90
51839;DHT22;37886;53.174;6.368;2023-11-21T15:48:42;7.60;99.90
51839;DHT22;37886;53.174;6.368;2023-11-21T15:51:15;7.60;99.90
51839;DHT22;37886;53.174;6.368;2023-11-21T15:53:42;7.50;99.90
51839;DHT22;37886;53.174;6.368;2023-11-21T15:56:08;7.40;99.90
51839;DHT22;37886;53.174;6.368;2023-11-21T15:58:40;7.30;99.90
51839;DHT22;37886;53.174;6.368;2023-11-21T16:01:09;7.20;99.90